sensor_id;sensor_type;location;lat;lon;timestamp;temperature;humidity
25328;DHT22;13279;51.300;12.394;2023-04-22T00:02:06;11.60;99.90
25328;DHT22;13279;51.300;12.394;2023-04-22T00:04:34;11.50;99.90
25328;DHT22;13279;51.300;12.394;2023-04-22T00:07:01;11.50;99.90
25328;DHT22;13279;51.300;12.394;2023-04-22T00:09:29;11.40;99.90
25328;DHT22;13279;51.300;12.394;2023-04-22T00:11:56;11.40;99.90
25328;DHT22;13279;51.300;12.394;2023-04-22T00:14:25;11.40;99.90
25328;DHT22;13279;51.300;12.394;2023-04-22T00:16:53;11.30;99.90
25328;DHT22;13279;51.300;12.394;2023-04-22T00:19:21;11.30;1.00
25328;DHT22;13279;51.300;12.394;2023-04-22T00:21:48;11.30;1.00
25328;DHT22;13279;51.300;12.394;2023-04-22T00:24:16;11.20;1.00
25328;DHT22;13279;51.300;12.394;2023-04-22T00:26:44;11.20;1.00
25328;DHT22;13279;51.300;12.394;2023-04-22T00:29:11;11.20;1.00
25328;DHT22;13279;51.300;12.394;2023-04-22T00:31:40;11.20;1.00
25328;DHT22;13279;51.300;12.394;2023-04-22T00:34:08;11.20;1.00
25328;DHT22;13279;51.300;12.394;2023-04-22T00:36:35;11.10;1.00
25328;DHT22;13279;51.300;12.394;2023-04-22T00:39:03;11.10;1.00
25328;DHT22;13279;51.300;12.394;2023-04-22T00:41:32;11.10;1.00
25328;DHT22;13279;51.300;12.394;2023-04-22T00:44:00;11.10;1.00
25328;DHT22;13279;51.300;12.394;2023-04-22T00:46:28;11.10;1.00
25328;DHT22;13279;51.300;12.394;2023-04-22T00:48:57;11.10;1.00
25328;DHT22;13279;51.300;12.394;2023-04-22T00:51:24;11.00;1.00
25328;DHT22;13279;51.300;12.394;2023-04-22T00:53:53;11.00;1.00
25328;DHT22;13279;51.300;12.394;2023-04-22T00:56:21;11.00;1.00
25328;DHT22;13279;51.300;12.394;2023-04-22T00:58:51;11.00;1.00
25328;DHT22;13279;51.300;12.394;2023-04-22T01:01:19;11.00;1.00
25328;DHT22;13279;51.300;12.394;2023-04-22T01:03:47;11.00;1.00
25328;DHT22;13279;51.300;12.394;2023-04-22T01:06:18;11.00;1.00
25328;DHT22;13279;51.300;12.394;2023-04-22T01:08:46;11.00;1.00
25328;DHT22;13279;51.300;12.394;2023-04-22T01:11:14;11.10;1.00
25328;DHT22;13279;51.300;12.394;2023-04-22T01:13:41;11.10;1.00
25328;DHT22;13279;51.300;12.394;2023-04-22T01:16:09;11.10;1.00
25328;DHT22;13279;51.300;12.394;2023-04-22T01:18:37;11.10;1.00
25328;DHT22;13279;51.300;12.394;2023-04-22T01:21:05;11.10;99.90
25328;DHT22;13279;51.300;12.394;2023-04-22T01:23:34;11.20;99.90
25328;DHT22;13279;51.300;12.394;2023-04-22T01:26:02;11.10;99.90
25328;DHT22;13279;51.300;12.394;2023-04-22T01:28:30;11.20;99.90
25328;DHT22;13279;51.300;12.394;2023-04-22T01:30:57;11.20;99.90
25328;DHT22;13279;51.300;12.394;2023-04-22T01:33:25;11.20;99.90
25328;DHT22;13279;51.300;12.394;2023-04-22T01:35:53;11.20;99.90
25328;DHT22;13279;51.300;12.394;2023-04-22T01:38:20;11.20;99.90
25328;DHT22;13279;51.300;12.394;2023-04-22T01:40:50;11.20;99.90
25328;DHT22;13279;51.300;12.394;2023-04-22T01:43:18;11.20;99.90
25328;DHT22;13279;51.300;12.394;2023-04-22T01:45:45;11.20;99.90
25328;DHT22;13279;51.300;12.394;2023-04-22T01:48:13;11.20;99.90
25328;DHT22;13279;51.300;12.394;2023-04-22T01:50:41;11.20;99.90
25328;DHT22;13279;51.300;12.394;2023-04-22T01:53:12;11.20;99.90
25328;DHT22;13279;51.300;12.394;2023-04-22T01:55:40;11.20;99.90
25328;DHT22;13279;51.300;12.394;2023-04-22T01:58:13;11.20;99.90
25328;DHT22;13279;51.300;12.394;2023-04-22T02:00:41;11.20;99.90
25328;DHT22;13279;51.300;12.394;2023-04-22T02:03:08;11.20;99.90
25328;DHT22;13279;51.300;12.394;2023-04-22T02:05:36;11.10;99.90
25328;DHT22;13279;51.300;12.394;2023-04-22T02:08:03;11.10;99.90
25328;DHT22;13279;51.300;12.394;2023-04-22T02:10:31;11.00;99.90
25328;DHT22;13279;51.300;12.394;2023-04-22T02:12:59;11.10;99.90
25328;DHT22;13279;51.300;12.394;2023-04-22T02:15:27;11.10;99.90
25328;DHT22;13279;51.300;12.394;2023-04-22T02:17:55;11.10;99.90
25328;DHT22;13279;51.300;12.394;2023-04-22T02:20:23;11.00;99.90
25328;DHT22;13279;51.300;12.394;2023-04-22T02:22:50;11.00;99.90
25328;DHT22;13279;51.300;12.394;2023-04-22T02:25:19;11.00;99.90
25328;DHT22;13279;51.300;12.394;2023-04-22T02:27:46;11.00;99.90
25328;DHT22;13279;51.300;12.394;2023-04-22T02:30:14;11.00;99.90
25328;DHT22;13279;51.300;12.394;2023-04-22T02:32:43;11.00;99.90
25328;DHT22;13279;51.300;12.394;2023-04-22T02:35:11;10.90;1.00
25328;DHT22;13279;51.300;12.394;2023-04-22T02:37:38;10.90;1.00
25328;DHT22;13279;51.300;12.394;2023-04-22T02:40:07;10.90;1.00
25328;DHT22;13279;51.300;12.394;2023-04-22T02:42:34;10.80;1.00
25328;DHT22;13279;51.300;12.394;2023-04-22T02:45:02;10.80;1.00
25328;DHT22;13279;51.300;12.394;2023-04-22T02:47:30;10.80;1.00
25328;DHT22;13279;51.300;12.394;2023-04-22T02:49:59;10.80;1.00
25328;DHT22;13279;51.300;12.394;2023-04-22T02:52:28;10.80;1.00
25328;DHT22;13279;51.300;12.394;2023-04-22T02:54:55;10.90;1.00
25328;DHT22;13279;51.300;12.394;2023-04-22T02:57:22;10.80;1.00
25328;DHT22;13279;51.300;12.394;2023-04-22T02:59:50;10.90;1.00
25328;DHT22;13279;51.300;12.394;2023-04-22T03:02:19;10.80;1.00
25328;DHT22;13279;51.300;12.394;2023-04-22T03:05:01;10.80;1.00
25328;DHT22;13279;51.300;12.394;2023-04-22T03:07:30;10.80;1.00
25328;DHT22;13279;51.300;12.394;2023-04-22T03:09:58;10.80;1.00
25328;DHT22;13279;51.300;12.394;2023-04-22T03:12:25;10.80;1.00
25328;DHT22;13279;51.300;12.394;2023-04-22T03:14:53;10.70;1.00
25328;DHT22;13279;51.300;12.394;2023-04-22T03:17:23;10.70;1.00
25328;DHT22;13279;51.300;12.394;2023-04-22T03:19:51;10.60;1.00
25328;DHT22;13279;51.300;12.394;2023-04-22T03:22:21;10.60;1.00
25328;DHT22;13279;51.300;12.394;2023-04-22T03:24:52;10.50;1.00
25328;DHT22;13279;51.300;12.394;2023-04-22T03:27:20;10.50;1.00
25328;DHT22;13279;51.300;12.394;2023-04-22T03:29:48;10.50;1.00
25328;DHT22;13279;51.300;12.394;2023-04-22T03:32:15;10.50;1.00
25328;DHT22;13279;51.300;12.394;2023-04-22T03:34:42;10.50;1.00
25328;DHT22;13279;51.300;12.394;2023-04-22T03:37:10;10.50;1.00
25328;DHT22;13279;51.300;12.394;2023-04-22T03:39:40;10.50;1.00
25328;DHT22;13279;51.300;12.394;2023-04-22T03:42:09;10.50;1.00
25328;DHT22;13279;51.300;12.394;2023-04-22T03:44:45;10.50;1.00
25328;DHT22;13279;51.300;12.394;2023-04-22T03:47:14;10.40;1.00
25328;DHT22;13279;51.300;12.394;2023-04-22T03:49:47;10.50;1.00
25328;DHT22;13279;51.300;12.394;2023-04-22T03:52:15;10.40;1.00
25328;DHT22;13279;51.300;12.394;2023-04-22T03:54:51;10.50;1.00
25328;DHT22;13279;51.300;12.394;2023-04-22T03:57:19;10.50;1.00
25328;DHT22;13279;51.300;12.394;2023-04-22T03:59:46;10.40;1.00
25328;DHT22;13279;51.300;12.394;2023-04-22T04:02:14;10.50;1.00
25328;DHT22;13279;51.300;12.394;2023-04-22T04:04:42;10.50;1.00
25328;DHT22;13279;51.300;12.394;2023-04-22T04:07:10;10.50;1.00
25328;DHT22;13279;51.300;12.394;2023-04-22T04:09:37;10.50;1.00
25328;DHT22;13279;51.300;12.394;2023-04-22T04:12:06;10.50;1.00
25328;DHT22;13279;51.300;12.394;2023-04-22T04:14:38;10.40;1.00
25328;DHT22;13279;51.300;12.394;2023-04-22T04:17:06;10.40;1.00
25328;DHT22;13279;51.300;12.394;2023-04-22T04:19:35;10.40;1.00
25328;DHT22;13279;51.300;12.394;2023-04-22T04:22:03;10.40;1.00
25328;DHT22;13279;51.300;12.394;2023-04-22T04:24:36;10.40;1.00
25328;DHT22;13279;51.300;12.394;2023-04-22T04:27:14;10.40;1.00
25328;DHT22;13279;51.300;12.394;2023-04-22T04:29:49;10.30;1.00
25328;DHT22;13279;51.300;12.394;2023-04-22T04:32:31;10.30;1.00
25328;DHT22;13279;51.300;12.394;2023-04-22T04:35:06;10.30;1.00
25328;DHT22;13279;51.300;12.394;2023-04-22T04:37:35;10.20;1.00
25328;DHT22;13279;51.300;12.394;2023-04-22T04:40:08;10.30;1.00
25328;DHT22;13279;51.300;12.394;2023-04-22T04:42:45;10.30;1.00
25328;DHT22;13279;51.300;12.394;2023-04-22T04:45:19;10.30;1.00
25328;DHT22;13279;51.300;12.394;2023-04-22T04:47:47;10.30;1.00
25328;DHT22;13279;51.300;12.394;2023-04-22T04:50:23;10.40;1.00
25328;DHT22;13279;51.300;12.394;2023-04-22T04:52:55;10.40;1.00
25328;DHT22;13279;51.300;12.394;2023-04-22T04:55:30;10.40;1.00
25328;DHT22;13279;51.300;12.394;2023-04-22T04:58:01;10.50;1.00
25328;DHT22;13279;51.300;12.394;2023-04-22T05:00:29;10.50;1.00
25328;DHT22;13279;51.300;12.394;2023-04-22T05:02:58;10.50;1.00
25328;DHT22;13279;51.300;12.394;2023-04-22T05:05:27;10.50;1.00
25328;DHT22;13279;51.300;12.394;2023-04-22T05:07:56;10.60;1.00
25328;DHT22;13279;51.300;12.394;2023-04-22T05:10:26;10.70;1.00
25328;DHT22;13279;51.300;12.394;2023-04-22T05:12:53;10.60;1.00
25328;DHT22;13279;51.300;12.394;2023-04-22T05:15:25;10.70;1.00
25328;DHT22;13279;51.300;12.394;2023-04-22T05:17:56;10.80;1.00
25328;DHT22;13279;51.300;12.394;2023-04-22T05:20:23;10.80;1.00
25328;DHT22;13279;51.300;12.394;2023-04-22T05:22:51;10.90;1.00
25328;DHT22;13279;51.300;12.394;2023-04-22T05:25:18;10.90;1.00
25328;DHT22;13279;51.300;12.394;2023-04-22T05:27:54;11.00;1.00
25328;DHT22;13279;51.300;12.394;2023-04-22T05:30:26;11.00;1.00
25328;DHT22;13279;51.300;12.394;2023-04-22T05:32:54;11.10;1.00
25328;DHT22;13279;51.300;12.394;2023-04-22T05:35:21;11.20;1.00
25328;DHT22;13279;51.300;12.394;2023-04-22T05:37:49;11.20;1.00
25328;DHT22;13279;51.300;12.394;2023-04-22T05:40:16;11.30;1.00
25328;DHT22;13279;51.300;12.394;2023-04-22T05:42:44;11.40;1.00
25328;DHT22;13279;51.300;12.394;2023-04-22T05:45:11;11.40;99.90
25328;DHT22;13279;51.300;12.394;2023-04-22T05:47:44;11.50;99.90
25328;DHT22;13279;51.300;12.394;2023-04-22T05:50:16;11.60;99.90
25328;DHT22;13279;51.300;12.394;2023-04-22T05:52:52;11.60;99.90
25328;DHT22;13279;51.300;12.394;2023-04-22T05:55:20;11.70;99.90
25328;DHT22;13279;51.300;12.394;2023-04-22T05:57:47;11.80;99.90
25328;DHT22;13279;51.300;12.394;2023-04-22T06:00:51;11.90;99.90
25328;DHT22;13279;51.300;12.394;2023-04-22T06:03:40;12.00;99.90
25328;DHT22;13279;51.300;12.394;2023-04-22T06:06:08;12.10;99.90
25328;DHT22;13279;51.300;12.394;2023-04-22T06:08:35;12.30;99.90
25328;DHT22;13279;51.300;12.394;2023-04-22T06:11:03;12.40;99.90
25328;DHT22;13279;51.300;12.394;2023-04-22T06:13:34;12.70;46.50
25328;DHT22;13279;51.300;12.394;2023-04-22T06:16:02;12.90;1.00
25328;DHT22;13279;51.300;12.394;2023-04-22T06:18:31;13.20;1.00
25328;DHT22;13279;51.300;12.394;2023-04-22T06:21:02;13.30;1.00
25328;DHT22;13279;51.300;12.394;2023-04-22T06:23:30;13.50;1.00
25328;DHT22;13279;51.300;12.394;2023-04-22T06:25:57;13.70;1.00
25328;DHT22;13279;51.300;12.394;2023-04-22T06:28:27;13.90;1.00
25328;DHT22;13279;51.300;12.394;2023-04-22T06:30:58;14.00;99.90
25328;DHT22;13279;51.300;12.394;2023-04-22T06:33:26;14.30;99.90
25328;DHT22;13279;51.300;12.394;2023-04-22T06:35:53;14.60;1.00
25328;DHT22;13279;51.300;12.394;2023-04-22T06:38:22;14.60;1.00
25328;DHT22;13279;51.300;12.394;2023-04-22T06:41:19;14.80;1.00
25328;DHT22;13279;51.300;12.394;2023-04-22T06:43:49;15.00;1.00
25328;DHT22;13279;51.300;12.394;2023-04-22T06:46:42;15.30;1.00
25328;DHT22;13279;51.300;12.394;2023-04-22T06:49:41;15.50;99.90
25328;DHT22;13279;51.300;12.394;2023-04-22T06:52:39;15.60;99.90
25328;DHT22;13279;51.300;12.394;2023-04-22T06:55:09;15.80;1.00
25328;DHT22;13279;51.300;12.394;2023-04-22T06:57:37;16.00;1.00
25328;DHT22;13279;51.300;12.394;2023-04-22T07:00:06;16.10;1.00
25328;DHT22;13279;51.300;12.394;2023-04-22T07:02:37;16.40;99.90
25328;DHT22;13279;51.300;12.394;2023-04-22T07:05:05;16.60;1.00
25328;DHT22;13279;51.300;12.394;2023-04-22T07:07:32;16.80;1.00
25328;DHT22;13279;51.300;12.394;2023-04-22T07:10:00;16.90;1.00
25328;DHT22;13279;51.300;12.394;2023-04-22T07:12:36;17.20;99.90
25328;DHT22;13279;51.300;12.394;2023-04-22T07:15:04;17.20;55.70
25328;DHT22;13279;51.300;12.394;2023-04-22T07:17:32;17.30;1.00
25328;DHT22;13279;51.300;12.394;2023-04-22T07:20:00;17.40;1.00
25328;DHT22;13279;51.300;12.394;2023-04-22T07:22:27;17.50;1.00
25328;DHT22;13279;51.300;12.394;2023-04-22T07:24:55;17.60;1.00
25328;DHT22;13279;51.300;12.394;2023-04-22T07:27:22;17.40;1.00
25328;DHT22;13279;51.300;12.394;2023-04-22T07:29:51;17.40;1.00
25328;DHT22;13279;51.300;12.394;2023-04-22T07:32:18;17.50;1.00
25328;DHT22;13279;51.300;12.394;2023-04-22T07:34:46;17.50;99.90
25328;DHT22;13279;51.300;12.394;2023-04-22T07:37:14;17.70;99.90
25328;DHT22;13279;51.300;12.394;2023-04-22T07:39:41;17.80;1.00
25328;DHT22;13279;51.300;12.394;2023-04-22T07:42:08;18.10;99.90
25328;DHT22;13279;51.300;12.394;2023-04-22T07:44:36;18.30;99.90
25328;DHT22;13279;51.300;12.394;2023-04-22T07:47:05;18.40;24.80
25328;DHT22;13279;51.300;12.394;2023-04-22T07:49:34;18.50;29.60
25328;DHT22;13279;51.300;12.394;2023-04-22T07:52:01;18.50;1.00
25328;DHT22;13279;51.300;12.394;2023-04-22T07:54:29;18.60;1.00
25328;DHT22;13279;51.300;12.394;2023-04-22T07:56:56;18.70;1.00
25328;DHT22;13279;51.300;12.394;2023-04-22T07:59:24;18.80;1.00
25328;DHT22;13279;51.300;12.394;2023-04-22T08:01:51;19.00;1.00
25328;DHT22;13279;51.300;12.394;2023-04-22T08:04:21;19.00;1.00
25328;DHT22;13279;51.300;12.394;2023-04-22T08:06:48;19.10;1.00
25328;DHT22;13279;51.300;12.394;2023-04-22T08:09:16;19.00;1.00
25328;DHT22;13279;51.300;12.394;2023-04-22T08:11:43;18.90;1.00
25328;DHT22;13279;51.300;12.394;2023-04-22T08:14:11;19.00;1.00
25328;DHT22;13279;51.300;12.394;2023-04-22T08:16:39;19.10;99.90
25328;DHT22;13279;51.300;12.394;2023-04-22T08:19:07;19.30;99.90
25328;DHT22;13279;51.300;12.394;2023-04-22T08:21:35;19.50;99.90
25328;DHT22;13279;51.300;12.394;2023-04-22T08:24:03;19.50;1.00
25328;DHT22;13279;51.300;12.394;2023-04-22T08:26:31;19.60;1.00
25328;DHT22;13279;51.300;12.394;2023-04-22T08:29:00;19.60;1.00
25328;DHT22;13279;51.300;12.394;2023-04-22T08:31:27;19.70;1.00
25328;DHT22;13279;51.300;12.394;2023-04-22T08:33:55;19.70;1.00
25328;DHT22;13279;51.300;12.394;2023-04-22T08:36:22;19.70;1.00
25328;DHT22;13279;51.300;12.394;2023-04-22T08:38:53;19.80;1.00
25328;DHT22;13279;51.300;12.394;2023-04-22T08:41:21;19.90;1.00
25328;DHT22;13279;51.300;12.394;2023-04-22T08:43:52;20.10;1.00
25328;DHT22;13279;51.300;12.394;2023-04-22T08:46:19;20.20;1.00
25328;DHT22;13279;51.300;12.394;2023-04-22T08:48:49;20.30;1.00
25328;DHT22;13279;51.300;12.394;2023-04-22T08:51:17;20.30;1.00
25328;DHT22;13279;51.300;12.394;2023-04-22T08:53:45;20.30;1.00
25328;DHT22;13279;51.300;12.394;2023-04-22T08:56:14;20.30;1.00
25328;DHT22;13279;51.300;12.394;2023-04-22T08:58:41;20.40;1.00
25328;DHT22;13279;51.300;12.394;2023-04-22T09:01:09;20.40;1.00
25328;DHT22;13279;51.300;12.394;2023-04-22T09:03:38;20.40;1.00
25328;DHT22;13279;51.300;12.394;2023-04-22T09:06:07;20.50;1.00
25328;DHT22;13279;51.300;12.394;2023-04-22T09:08:37;20.60;1.00
25328;DHT22;13279;51.300;12.394;2023-04-22T09:11:04;20.90;1.00
25328;DHT22;13279;51.300;12.394;2023-04-22T09:13:33;20.90;1.00
25328;DHT22;13279;51.300;12.394;2023-04-22T09:16:01;20.90;1.00
25328;DHT22;13279;51.300;12.394;2023-04-22T09:18:28;21.10;1.00
25328;DHT22;13279;51.300;12.394;2023-04-22T09:20:55;21.30;1.00
25328;DHT22;13279;51.300;12.394;2023-04-22T09:23:23;21.40;1.00
25328;DHT22;13279;51.300;12.394;2023-04-22T09:25:50;21.40;1.00
25328;DHT22;13279;51.300;12.394;2023-04-22T09:28:18;21.50;1.00
25328;DHT22;13279;51.300;12.394;2023-04-22T09:30:47;21.40;1.00
25328;DHT22;13279;51.300;12.394;2023-04-22T09:33:14;21.50;1.00
25328;DHT22;13279;51.300;12.394;2023-04-22T09:35:42;21.40;1.00
25328;DHT22;13279;51.300;12.394;2023-04-22T09:38:11;21.40;1.00
25328;DHT22;13279;51.300;12.394;2023-04-22T09:40:41;21.60;1.00
25328;DHT22;13279;51.300;12.394;2023-04-22T09:43:10;21.50;99.90
25328;DHT22;13279;51.300;12.394;2023-04-22T09:45:38;21.80;1.00
25328;DHT22;13279;51.300;12.394;2023-04-22T09:48:09;22.00;99.90
25328;DHT22;13279;51.300;12.394;2023-04-22T09:50:38;22.10;99.90
25328;DHT22;13279;51.300;12.394;2023-04-22T09:53:07;22.20;99.90
25328;DHT22;13279;51.300;12.394;2023-04-22T09:55:37;22.00;99.90
25328;DHT22;13279;51.300;12.394;2023-04-22T09:58:06;22.00;99.90
25328;DHT22;13279;51.300;12.394;2023-04-22T10:00:36;22.20;99.90
25328;DHT22;13279;51.300;12.394;2023-04-22T10:03:04;22.50;99.90
25328;DHT22;13279;51.300;12.394;2023-04-22T10:05:34;22.50;99.90
25328;DHT22;13279;51.300;12.394;2023-04-22T10:08:03;22.50;99.90
25328;DHT22;13279;51.300;12.394;2023-04-22T10:10:31;22.60;99.90
25328;DHT22;13279;51.300;12.394;2023-04-22T10:12:59;22.70;99.90
25328;DHT22;13279;51.300;12.394;2023-04-22T10:15:30;22.80;99.90
25328;DHT22;13279;51.300;12.394;2023-04-22T10:17:59;22.80;99.90
25328;DHT22;13279;51.300;12.394;2023-04-22T10:20:28;23.00;1.00
25328;DHT22;13279;51.300;12.394;2023-04-22T10:22:58;23.00;99.90
25328;DHT22;13279;51.300;12.394;2023-04-22T10:25:25;22.90;99.90
25328;DHT22;13279;51.300;12.394;2023-04-22T10:27:54;22.80;99.90
25328;DHT22;13279;51.300;12.394;2023-04-22T10:30:28;22.80;99.90
25328;DHT22;13279;51.300;12.394;2023-04-22T10:32:56;23.00;99.90
25328;DHT22;13279;51.300;12.394;2023-04-22T10:36:04;22.90;1.00
25328;DHT22;13279;51.300;12.394;2023-04-22T10:38:34;22.90;1.00
25328;DHT22;13279;51.300;12.394;2023-04-22T10:41:02;23.00;1.00
25328;DHT22;13279;51.300;12.394;2023-04-22T10:43:43;23.10;99.90
25328;DHT22;13279;51.300;12.394;2023-04-22T10:46:54;23.10;99.90
25328;DHT22;13279;51.300;12.394;2023-04-22T10:49:23;23.10;99.90
25328;DHT22;13279;51.300;12.394;2023-04-22T10:51:51;23.10;99.90
25328;DHT22;13279;51.300;12.394;2023-04-22T10:54:58;23.00;99.90
25328;DHT22;13279;51.300;12.394;2023-04-22T10:57:37;23.10;99.90
25328;DHT22;13279;51.300;12.394;2023-04-22T11:00:27;22.90;99.90
25328;DHT22;13279;51.300;12.394;2023-04-22T11:03:14;22.90;99.90
25328;DHT22;13279;51.300;12.394;2023-04-22T11:05:42;23.00;99.90
25328;DHT22;13279;51.300;12.394;2023-04-22T11:08:16;23.00;99.90
25328;DHT22;13279;51.300;12.394;2023-04-22T11:10:48;23.30;99.90
25328;DHT22;13279;51.300;12.394;2023-04-22T11:13:17;23.70;99.90
25328;DHT22;13279;51.300;12.394;2023-04-22T11:15:46;23.80;99.90
25328;DHT22;13279;51.300;12.394;2023-04-22T11:18:18;23.90;99.90
25328;DHT22;13279;51.300;12.394;2023-04-22T11:20:46;24.10;99.90
25328;DHT22;13279;51.300;12.394;2023-04-22T11:23:21;24.20;99.90
25328;DHT22;13279;51.300;12.394;2023-04-22T11:25:56;24.30;99.90
25328;DHT22;13279;51.300;12.394;2023-04-22T11:28:24;24.30;99.90
25328;DHT22;13279;51.300;12.394;2023-04-22T11:30:52;24.30;99.90
25328;DHT22;13279;51.300;12.394;2023-04-22T11:33:20;24.40;99.90
25328;DHT22;13279;51.300;12.394;2023-04-22T11:35:48;24.50;99.90
25328;DHT22;13279;51.300;12.394;2023-04-22T11:38:17;24.70;99.90
25328;DHT22;13279;51.300;12.394;2023-04-22T11:40:44;24.80;99.90
25328;DHT22;13279;51.300;12.394;2023-04-22T11:43:14;24.70;99.90
25328;DHT22;13279;51.300;12.394;2023-04-22T11:45:43;24.80;99.90
25328;DHT22;13279;51.300;12.394;2023-04-22T11:48:11;24.90;99.90
25328;DHT22;13279;51.300;12.394;2023-04-22T11:50:40;24.70;62.40
25328;DHT22;13279;51.300;12.394;2023-04-22T11:53:13;24.70;13.70
25328;DHT22;13279;51.300;12.394;2023-04-22T11:55:43;24.80;1.00
25328;DHT22;13279;51.300;12.394;2023-04-22T11:58:12;24.80;1.00
25328;DHT22;13279;51.300;12.394;2023-04-22T12:00:43;24.90;1.00
25328;DHT22;13279;51.300;12.394;2023-04-22T12:03:15;25.10;1.00
25328;DHT22;13279;51.300;12.394;2023-04-22T12:05:44;25.20;1.00
25328;DHT22;13279;51.300;12.394;2023-04-22T12:08:13;25.20;1.00
25328;DHT22;13279;51.300;12.394;2023-04-22T12:10:42;25.00;1.00
25328;DHT22;13279;51.300;12.394;2023-04-22T12:13:16;24.90;1.00
25328;DHT22;13279;51.300;12.394;2023-04-22T12:15:46;24.80;1.00
25328;DHT22;13279;51.300;12.394;2023-04-22T12:18:13;24.80;1.00
25328;DHT22;13279;51.300;12.394;2023-04-22T12:20:41;24.80;1.00
25328;DHT22;13279;51.300;12.394;2023-04-22T12:23:13;24.90;1.00
25328;DHT22;13279;51.300;12.394;2023-04-22T12:25:42;24.90;1.00
25328;DHT22;13279;51.300;12.394;2023-04-22T12:28:10;25.30;1.00
25328;DHT22;13279;51.300;12.394;2023-04-22T12:30:38;25.40;1.00
25328;DHT22;13279;51.300;12.394;2023-04-22T12:33:07;25.60;1.00
25328;DHT22;13279;51.300;12.394;2023-04-22T12:35:35;25.90;1.00
25328;DHT22;13279;51.300;12.394;2023-04-22T12:38:02;26.00;1.00
25328;DHT22;13279;51.300;12.394;2023-04-22T12:40:30;25.80;1.00
25328;DHT22;13279;51.300;12.394;2023-04-22T12:42:57;25.80;1.00
25328;DHT22;13279;51.300;12.394;2023-04-22T12:45:26;25.60;1.00
25328;DHT22;13279;51.300;12.394;2023-04-22T12:47:54;25.50;1.00
25328;DHT22;13279;51.300;12.394;2023-04-22T12:50:24;25.50;1.00
25328;DHT22;13279;51.300;12.394;2023-04-22T12:52:51;25.50;1.00
25328;DHT22;13279;51.300;12.394;2023-04-22T12:55:20;25.70;1.00
25328;DHT22;13279;51.300;12.394;2023-04-22T12:57:49;25.80;1.00
25328;DHT22;13279;51.300;12.394;2023-04-22T13:00:19;25.90;1.00
25328;DHT22;13279;51.300;12.394;2023-04-22T13:02:48;25.70;1.00
25328;DHT22;13279;51.300;12.394;2023-04-22T13:05:16;26.00;1.00
25328;DHT22;13279;51.300;12.394;2023-04-22T13:07:46;26.30;1.00
25328;DHT22;13279;51.300;12.394;2023-04-22T13:10:14;26.10;1.00
25328;DHT22;13279;51.300;12.394;2023-04-22T13:12:42;26.40;1.00
25328;DHT22;13279;51.300;12.394;2023-04-22T13:15:11;26.40;1.00
25328;DHT22;13279;51.300;12.394;2023-04-22T13:17:38;26.70;1.00
25328;DHT22;13279;51.300;12.394;2023-04-22T13:20:07;26.90;22.50
25328;DHT22;13279;51.300;12.394;2023-04-22T13:22:37;27.10;1.00
25328;DHT22;13279;51.300;12.394;2023-04-22T13:25:07;27.30;1.00
25328;DHT22;13279;51.300;12.394;2023-04-22T13:27:35;27.10;1.00
25328;DHT22;13279;51.300;12.394;2023-04-22T13:30:03;27.00;1.00
25328;DHT22;13279;51.300;12.394;2023-04-22T13:32:30;27.20;1.00
25328;DHT22;13279;51.300;12.394;2023-04-22T13:34:58;27.00;1.00
25328;DHT22;13279;51.300;12.394;2023-04-22T13:37:25;27.20;1.00
25328;DHT22;13279;51.300;12.394;2023-04-22T13:39:52;27.40;1.00
25328;DHT22;13279;51.300;12.394;2023-04-22T13:42:21;27.40;1.00
25328;DHT22;13279;51.300;12.394;2023-04-22T13:44:48;27.80;1.00
25328;DHT22;13279;51.300;12.394;2023-04-22T13:47:16;27.40;1.00
25328;DHT22;13279;51.300;12.394;2023-04-22T13:49:43;27.50;1.00
25328;DHT22;13279;51.300;12.394;2023-04-22T13:52:11;27.70;3.30
25328;DHT22;13279;51.300;12.394;2023-04-22T13:54:38;28.30;1.00
25328;DHT22;13279;51.300;12.394;2023-04-22T13:57:06;28.50;1.00
25328;DHT22;13279;51.300;12.394;2023-04-22T13:59:35;28.50;1.00
25328;DHT22;13279;51.300;12.394;2023-04-22T14:02:03;28.10;1.00
25328;DHT22;13279;51.300;12.394;2023-04-22T14:04:32;28.00;1.00
25328;DHT22;13279;51.300;12.394;2023-04-22T14:06:59;27.90;1.00
25328;DHT22;13279;51.300;12.394;2023-04-22T14:09:27;27.90;1.00
25328;DHT22;13279;51.300;12.394;2023-04-22T14:11:55;27.90;1.00
25328;DHT22;13279;51.300;12.394;2023-04-22T14:14:22;27.70;1.00
25328;DHT22;13279;51.300;12.394;2023-04-22T14:16:51;27.80;1.00
25328;DHT22;13279;51.300;12.394;2023-04-22T14:19:19;27.60;1.00
25328;DHT22;13279;51.300;12.394;2023-04-22T14:21:48;27.80;1.00
25328;DHT22;13279;51.300;12.394;2023-04-22T14:24:15;28.00;1.00
25328;DHT22;13279;51.300;12.394;2023-04-22T14:26:44;28.10;1.00
25328;DHT22;13279;51.300;12.394;2023-04-22T14:29:11;28.20;1.00
25328;DHT22;13279;51.300;12.394;2023-04-22T14:31:39;27.50;1.00
25328;DHT22;13279;51.300;12.394;2023-04-22T14:34:08;27.70;1.00
25328;DHT22;13279;51.300;12.394;2023-04-22T14:36:36;28.00;1.00
25328;DHT22;13279;51.300;12.394;2023-04-22T14:39:03;28.10;1.00
25328;DHT22;13279;51.300;12.394;2023-04-22T14:41:31;28.10;1.00
25328;DHT22;13279;51.300;12.394;2023-04-22T14:43:58;28.30;1.00
25328;DHT22;13279;51.300;12.394;2023-04-22T14:46:25;28.10;1.00
25328;DHT22;13279;51.300;12.394;2023-04-22T14:48:53;27.90;1.00
25328;DHT22;13279;51.300;12.394;2023-04-22T14:51:22;28.10;1.00
25328;DHT22;13279;51.300;12.394;2023-04-22T14:53:49;28.40;1.00
25328;DHT22;13279;51.300;12.394;2023-04-22T14:56:17;28.50;1.00
25328;DHT22;13279;51.300;12.394;2023-04-22T14:58:44;28.70;1.00
25328;DHT22;13279;51.300;12.394;2023-04-22T15:01:12;29.20;1.00
25328;DHT22;13279;51.300;12.394;2023-04-22T15:03:40;29.50;1.00
25328;DHT22;13279;51.300;12.394;2023-04-22T15:06:07;29.30;1.00
25328;DHT22;13279;51.300;12.394;2023-04-22T15:08:36;29.20;1.00
25328;DHT22;13279;51.300;12.394;2023-04-22T15:11:04;28.80;1.00
25328;DHT22;13279;51.300;12.394;2023-04-22T15:13:31;28.10;1.00
25328;DHT22;13279;51.300;12.394;2023-04-22T15:15:59;27.50;1.00
25328;DHT22;13279;51.300;12.394;2023-04-22T15:18:27;27.30;1.00
25328;DHT22;13279;51.300;12.394;2023-04-22T15:20:54;26.90;1.00
25328;DHT22;13279;51.300;12.394;2023-04-22T15:23:22;26.60;1.00
25328;DHT22;13279;51.300;12.394;2023-04-22T15:25:51;26.40;1.00
25328;DHT22;13279;51.300;12.394;2023-04-22T15:28:18;26.30;1.00
25328;DHT22;13279;51.300;12.394;2023-04-22T15:30:46;26.20;1.00
25328;DHT22;13279;51.300;12.394;2023-04-22T15:33:14;26.30;1.00
25328;DHT22;13279;51.300;12.394;2023-04-22T15:35:42;26.20;1.00
25328;DHT22;13279;51.300;12.394;2023-04-22T15:38:12;25.80;1.00
25328;DHT22;13279;51.300;12.394;2023-04-22T15:40:39;25.50;1.00
25328;DHT22;13279;51.300;12.394;2023-04-22T15:43:08;25.30;1.00